Time;durP1;ratioP1;P1;durP2;ratioP2;P2;SDS_P1;SDS_P2;PMS_P1;PMS_P2;Temp;Humidity;BMP_temperature;BMP_pressure;BME280_temperature;BME280_humidity;BME280_pressure;Samples;Min_cycle;Max_cycle;Signal;HPM_P1;HPM_P2
2022/07/31 00:01:36;;;;;;;7.43;6.50;;;;;;;18.43;76.34;101203.31;5063215;28;20063;-73
2022/07/31 00:04:02;;;;;;;9.88;6.38;;;;;;;18.33;76.96;101207.59;5063889;28;20125;-67
2022/07/31 00:06:29;;;;;;;11.27;6.22;;;;;;;18.67;75.48;101210.34;5064045;28;20044;-67
2022/07/31 00:08:55;;;;;;;9.70;6.50;;;;;;;18.66;74.67;101214.00;5062815;28;20465;-68
2022/07/31 00:11:21;;;;;;;9.20;6.28;;;;;;;18.24;76.76;101208.31;5067311;28;20706;-67
2022/07/31 00:13:48;;;;;;;10.48;6.80;;;;;;;18.42;76.16;101206.06;5063381;28;20066;-67
2022/07/31 00:16:14;;;;;;;8.43;6.38;;;;;;;18.91;74.35;101203.97;5062610;28;20072;-67
2022/07/31 00:18:42;;;;;;;8.55;6.93;;;;;;;19.31;72.42;101198.13;5062960;28;20045;-67
2022/07/31 00:21:08;;;;;;;9.10;6.82;;;;;;;19.37;71.48;101201.13;5063734;28;20076;-67
2022/07/31 00:23:34;;;;;;;7.72;5.82;;;;;;;19.52;70.52;101201.72;5061793;28;20048;-68
2022/07/31 00:26:01;;;;;;;6.75;5.80;;;;;;;19.40;70.19;101208.84;5067021;28;20496;-68
2022/07/31 00:28:27;;;;;;;8.95;5.80;;;;;;;19.03;70.95;101204.78;5066592;28;20048;-68
2022/07/31 00:30:53;;;;;;;6.88;5.30;;;;;;;18.89;71.83;101213.88;5065056;28;20052;-68
2022/07/31 00:33:20;;;;;;;9.70;5.93;;;;;;;18.54;72.80;101215.78;5065771;28;20444;-68
2022/07/31 00:35:47;;;;;;;7.20;6.47;;;;;;;17.93;76.65;101208.94;5068233;28;20040;-67
2022/07/31 00:38:14;;;;;;;10.10;7.68;;;;;;;17.38;80.81;101199.72;5063775;28;20122;-66
2022/07/31 00:40:45;;;;;;;8.07;7.22;;;;;;;17.35;81.98;101202.59;5072882;28;20044;-67
2022/07/31 00:43:13;;;;;;;11.10;7.93;;;;;;;17.61;80.48;101203.38;5070544;28;20044;-68
2022/07/31 00:45:39;;;;;;;10.65;8.27;;;;;;;18.26;77.81;101210.84;5065074;28;20090;-67
2022/07/31 00:48:06;;;;;;;9.00;7.97;;;;;;;17.97;77.49;101202.44;5067844;28;20117;-67
2022/07/31 00:50:32;;;;;;;11.48;8.68;;;;;;;17.67;80.09;101197.59;5067258;28;20118;-67
2022/07/31 00:53:00;;;;;;;10.32;8.45;;;;;;;17.79;79.49;101203.81;5066171;28;20044;-67
2022/07/31 00:55:26;;;;;;;8.80;7.90;;;;;;;17.50;81.19;101200.63;5067233;28;20048;-67
2022/07/31 00:57:53;;;;;;;11.50;8.85;;;;;;;17.43;82.00;101196.75;5068632;28;20048;-67
2022/07/31 01:00:19;;;;;;;12.45;8.98;;;;;;;17.53;81.54;101195.09;5065778;28;20044;-67
2022/07/31 01:02:45;;;;;;;11.68;8.95;;;;;;;17.57;81.65;101193.09;5066247;28;20102;-67
2022/07/31 01:05:12;;;;;;;11.23;8.80;;;;;;;17.53;81.17;101190.66;5069982;28;20044;-67
2022/07/31 01:07:38;;;;;;;13.65;9.23;;;;;;;18.01;78.57;101198.59;5064755;28;20634;-68
2022/07/31 01:10:10;;;;;;;10.85;8.50;;;;;;;17.96;78.84;101196.28;5080846;28;20044;-68
2022/07/31 01:12:39;;;;;;;;;;;;;;;17.78;78.90;101188.84;5088325;28;20040;-68
2022/07/31 01:15:09;;;;;;;12.05;8.63;;;;;;;18.07;78.48;101202.59;5077129;28;20349;-67
2022/07/31 01:17:38;;;;;;;12.95;8.63;;;;;;;18.27;76.83;101202.78;5066711;28;20067;-67
2022/07/31 01:20:07;;;;;;;11.65;8.07;;;;;;;17.68;79.46;101199.31;5064122;28;20102;-67
2022/07/31 01:22:52;;;;;;;10.75;8.38;;;;;;;17.51;80.40;101207.63;5059231;28;20048;-67
2022/07/31 01:25:32;;;;;;;14.50;8.93;;;;;;;17.47;81.43;101208.81;5065958;28;20052;-67
2022/07/31 01:28:04;;;;;;;18.95;9.07;;;;;;;17.85;79.62;101221.91;5066392;28;20056;-67
2022/07/31 01:30:39;;;;;;;12.90;9.52;;;;;;;18.25;78.09;101225.09;5065559;28;20110;-67
2022/07/31 01:33:12;;;;;;;10.50;8.57;;;;;;;18.42;77.16;101228.16;5067257;28;20097;-67
2022/07/31 01:35:41;;;;;;;13.85;8.95;;;;;;;18.28;78.02;101223.06;5069750;28;20044;-67
2022/07/31 01:38:12;;;;;;;10.70;9.60;;;;;;;18.29;77.80;101216.75;5065867;28;20573;-67
2022/07/31 01:40:43;;;;;;;10.60;9.45;;;;;;;18.21;77.82;101211.22;5065268;28;20094;-67
2022/07/31 01:43:15;;;;;;;14.35;10.23;;;;;;;17.99;78.66;101213.81;5064028;28;20070;-67
2022/07/31 01:45:44;;;;;;;12.15;9.63;;;;;;;17.46;81.30;101212.41;5065958;28;20099;-67
2022/07/31 01:48:14;;;;;;;10.27;9.27;;;;;;;17.39;81.56;101212.03;5066187;28;20052;-67
2022/07/31 01:50:43;;;;;;;10.43;9.40;;;;;;;17.64;80.38;101210.25;5064555;28;20113;-67
2022/07/31 01:53:12;;;;;;;13.70;9.38;;;;;;;17.53;80.57;101206.56;5065360;28;20040;-67
2022/07/31 01:55:42;;;;;;;11.10;9.75;;;;;;;17.46;81.42;101210.63;5067082;28;20106;-67
2022/07/31 01:58:09;;;;;;;12.95;9.52;;;;;;;17.38;81.87;101210.31;5064636;28;20122;-67
2022/07/31 02:00:37;;;;;;;11.13;9.10;;;;;;;17.47;80.87;101207.00;5066504;28;20094;-67
2022/07/31 02:03:08;;;;;;;12.77;9.50;;;;;;;17.68;79.92;101214.38;5067685;28;20090;-67
2022/07/31 02:05:35;;;;;;;10.80;9.57;;;;;;;17.61;79.35;101207.81;5068713;28;20040;-67
2022/07/31 02:08:03;;;;;;;11.00;9.32;;;;;;;18.12;77.42;101206.59;5064586;28;20049;-67
2022/07/31 02:10:30;;;;;;;13.70;9.68;;;;;;;18.52;75.24;101214.19;5063706;28;20098;-67
2022/07/31 02:12:58;;;;;;;12.82;9.35;;;;;;;18.46;75.13;101204.88;5066234;28;20393;-67
2022/07/31 02:15:26;;;;;;;11.82;9.48;;;;;;;18.43;75.37;101213.06;5064793;28;20040;-67
2022/07/31 02:17:54;;;;;;;10.02;9.00;;;;;;;18.31;75.72;101214.84;5064384;28;20091;-67
2022/07/31 02:20:23;;;;;;;10.60;9.43;;;;;;;18.24;76.11;101213.63;5065232;28;20044;-66
2022/07/31 02:22:49;;;;;;;11.43;9.27;;;;;;;18.32;75.64;101211.25;5066895;28;20573;-66
2022/07/31 02:25:16;;;;;;;11.10;8.82;;;;;;;18.29;75.12;101208.78;5064613;28;20462;-66
2022/07/31 02:27:44;;;;;;;11.65;9.95;;;;;;;18.14;76.41;101207.34;5066850;28;20040;-66
2022/07/31 02:30:11;;;;;;;21.20;9.43;;;;;;;18.06;76.96;101215.03;5065382;28;20052;-66
2022/07/31 02:32:39;;;;;;;11.23;9.75;;;;;;;18.44;75.47;101214.75;5064091;28;20044;-66
2022/07/31 02:35:07;;;;;;;12.48;10.23;;;;;;;18.73;74.02;101212.53;5065787;28;20743;-66
2022/07/31 02:37:37;;;;;;;15.02;9.38;;;;;;;18.82;72.98;101209.16;5065285;28;20048;-66
2022/07/31 02:40:05;;;;;;;12.77;9.25;;;;;;;18.49;73.54;101213.44;5063380;28;20082;-66
2022/07/31 02:42:32;;;;;;;10.75;9.35;;;;;;;18.30;73.79;101210.50;5064976;28;20071;-66
2022/07/31 02:45:00;;;;;;;12.35;9.68;;;;;;;18.33;74.20;101215.56;5067617;28;20098;-67
2022/07/31 02:47:27;;;;;;;12.88;10.60;;;;;;;18.55;73.84;101213.97;5063337;28;20076;-67
2022/07/31 02:49:54;;;;;;;16.15;11.18;;;;;;;18.65;73.62;101207.81;5064156;28;20411;-66
2022/07/31 02:52:21;;;;;;;14.10;12.60;;;;;;;18.63;74.39;101215.06;5058506;28;20134;-66
2022/07/31 02:54:50;;;;;;;14.25;12.05;;;;;;;18.75;73.97;101219.41;5057759;28;20048;-67
2022/07/31 02:57:17;;;;;;;15.90;12.98;;;;;;;18.90;73.86;101217.38;5065254;28;20040;-66
2022/07/31 02:59:43;;;;;;;17.63;12.50;;;;;;;18.83;73.43;101218.81;5065095;28;20476;-66
2022/07/31 03:02:10;;;;;;;14.43;12.50;;;;;;;18.82;74.22;101217.97;5063539;28;20062;-66
2022/07/31 03:04:36;;;;;;;15.68;12.70;;;;;;;18.90;73.92;101218.22;5065441;28;20401;-67
2022/07/31 03:07:03;;;;;;;15.30;12.75;;;;;;;18.99;73.46;101214.00;5065628;28;20048;-66
2022/07/31 03:09:29;;;;;;;14.70;11.57;;;;;;;19.02;73.37;101213.75;5062452;28;20055;-66
2022/07/31 03:11:58;;;;;;;15.77;12.65;;;;;;;19.03;73.65;101214.59;5068799;28;20044;-66
2022/07/31 03:14:25;;;;;;;18.20;11.55;;;;;;;19.06;73.33;101211.69;5076460;28;20106;-67
2022/07/31 03:16:52;;;;;;;14.38;11.07;;;;;;;19.09;73.27;101216.75;5062744;28;20131;-67
2022/07/31 03:19:20;;;;;;;13.77;11.75;;;;;;;19.08;73.26;101212.41;5063313;28;20051;-67
2022/07/31 03:21:47;;;;;;;15.90;11.60;;;;;;;19.12;72.99;101205.88;5067389;28;20056;-68
2022/07/31 03:24:14;;;;;;;13.43;10.88;;;;;;;19.06;73.44;101209.88;5067364;28;20098;-67
2022/07/31 03:26:41;;;;;;;12.25;10.95;;;;;;;19.10;72.93;101207.81;5064594;28;20033;-67
2022/07/31 03:29:08;;;;;;;14.55;11.63;;;;;;;19.11;73.06;101210.34;5064507;28;20044;-67
2022/07/31 03:31:35;;;;;;;14.02;10.88;;;;;;;19.14;72.61;101209.28;5064137;28;20102;-67
2022/07/31 03:34:01;;;;;;;12.10;10.80;;;;;;;19.08;72.70;101209.75;5084144;28;20101;-67
2022/07/31 03:36:29;;;;;;;12.27;10.50;;;;;;;19.04;72.77;101200.31;5065930;28;20109;-67
2022/07/31 03:38:55;;;;;;;14.63;11.23;;;;;;;18.90;73.54;101194.31;5061718;28;20048;-67
2022/07/31 03:41:22;;;;;;;13.05;10.30;;;;;;;18.66;73.89;101198.06;5068623;28;20040;-66
2022/07/31 03:43:49;;;;;;;13.95;10.90;;;;;;;18.86;73.66;101195.50;5084871;28;20052;-66
2022/07/31 03:46:19;;;;;;;14.68;11.27;;;;;;;19.06;73.14;101190.44;5062939;28;20044;-66
2022/07/31 03:48:46;;;;;;;14.77;11.32;;;;;;;19.14;72.63;101182.69;5062499;28;20462;-67
2022/07/31 03:51:13;;;;;;;13.90;10.73;;;;;;;19.10;72.07;101187.41;5067816;28;20590;-67
2022/07/31 03:53:40;;;;;;;15.63;10.55;;;;;;;19.09;72.42;101177.72;5083877;28;20089;-67
2022/07/31 03:56:07;;;;;;;14.48;10.35;;;;;;;19.00;72.83;101180.25;5084707;28;20549;-67
2022/07/31 03:58:33;;;;;;;13.35;11.45;;;;;;;18.96;73.01;101179.66;5086060;28;20039;-67
2022/07/31 04:01:00;;;;;;;14.63;10.77;;;;;;;18.92;73.61;101179.06;5084852;28;20052;-67
2022/07/31 04:03:30;;;;;;;12.48;11.00;;;;;;;19.17;72.52;101180.63;5067566;28;20090;-67
2022/07/31 04:05:57;;;;;;;13.23;10.90;;;;;;;19.23;72.56;101190.75;5067887;28;20048;-66
2022/07/31 04:08:23;;;;;;;13.05;10.70;;;;;;;19.12;73.02;101189.94;5067867;28;20094;-66
2022/07/31 04:10:49;;;;;;;16.08;11.48;;;;;;;19.28;72.76;101179.75;5066723;28;20644;-67
2022/07/31 04:13:16;;;;;;;13.20;10.82;;;;;;;19.27;72.65;101192.19;5088633;28;20112;-67
2022/07/31 04:15:42;;;;;;;12.35;10.30;;;;;;;19.00;73.80;101196.22;5070501;28;20101;-67
2022/07/31 04:18:08;;;;;;;13.60;10.27;;;;;;;19.00;73.46;101188.25;5067139;28;20454;-67
2022/07/31 04:20:36;;;;;;;13.70;10.45;;;;;;;19.20;73.21;101198.97;5067032;28;20044;-67
2022/07/31 04:23:02;;;;;;;11.95;10.75;;;;;;;19.19;73.15;101191.13;5084768;28;20093;-66
2022/07/31 04:25:29;;;;;;;13.32;10.75;;;;;;;19.23;72.99;101200.53;5069202;28;20135;-67
2022/07/31 04:27:55;;;;;;;14.10;10.38;;;;;;;19.26;73.38;101201.13;5066878;28;20105;-67
2022/07/31 04:30:21;;;;;;;13.48;10.57;;;;;;;19.28;72.85;101196.56;5065066;28;20126;-67
2022/07/31 04:32:48;;;;;;;13.18;10.30;;;;;;;19.42;72.54;101192.81;5067580;28;20048;-67
2022/07/31 04:35:14;;;;;;;12.98;10.57;;;;;;;19.42;72.68;101184.81;5068450;28;20052;-67
2022/07/31 04:37:42;;;;;;;13.52;10.82;;;;;;;19.38;73.46;101196.66;5065882;28;20044;-68
2022/07/31 04:40:10;;;;;;;13.93;10.77;;;;;;;19.49;73.48;101191.34;5065917;28;20044;-68
2022/07/31 04:42:36;;;;;;;13.85;10.82;;;;;;;19.53;73.08;101186.59;5068382;28;20411;-67
2022/07/31 04:45:03;;;;;;;13.13;10.75;;;;;;;19.66;73.35;101188.13;5066384;28;20098;-67
2022/07/31 04:47:29;;;;;;;15.88;11.95;;;;;;;19.95;73.08;101183.06;5066644;28;20055;-67
2022/07/31 04:49:56;;;;;;;13.93;11.88;;;;;;;20.17;72.51;101180.28;5067000;28;20094;-68
2022/07/31 04:52:22;;;;;;;12.77;11.02;;;;;;;20.19;73.04;101188.13;5065340;28;20048;-67
2022/07/31 04:54:50;;;;;;;13.40;10.77;;;;;;;20.17;72.97;101193.59;5075189;28;20051;-67
2022/07/31 04:57:16;;;;;;;13.27;10.18;;;;;;;19.78;75.06;101189.78;5077412;28;20056;-67
2022/07/31 04:59:42;;;;;;;11.43;10.27;;;;;;;19.98;74.64;101198.78;5066005;28;20040;-67
2022/07/31 05:02:09;;;;;;;11.07;9.90;;;;;;;20.34;72.14;101201.03;5067392;28;20102;-67
2022/07/31 05:04:35;;;;;;;12.02;10.07;;;;;;;20.59;72.16;101202.41;5066963;28;20044;-66
2022/07/31 05:07:01;;;;;;;13.07;9.65;;;;;;;20.28;73.25;101192.72;5064659;28;20044;-66
2022/07/31 05:09:32;;;;;;;12.77;9.70;;;;;;;20.64;72.34;101202.03;5065424;28;20052;-67
2022/07/31 05:11:59;;;;;;;9.90;8.45;;;;;;;20.60;72.07;101198.78;5067173;28;20045;-67
2022/07/31 05:14:26;;;;;;;12.65;9.60;;;;;;;20.78;72.38;101193.66;5066180;28;20041;-67
2022/07/31 05:16:52;;;;;;;11.70;8.77;;;;;;;21.13;71.24;101201.28;5066250;28;20106;-67
2022/07/31 05:19:18;;;;;;;15.30;9.07;;;;;;;21.11;70.52;101198.75;5066512;28;20045;-67
2022/07/31 05:21:46;;;;;;;11.80;7.90;;;;;;;21.26;70.51;101208.06;5066011;28;20048;-67
2022/07/31 05:24:12;;;;;;;8.88;7.68;;;;;;;21.25;70.34;101210.84;5066402;28;20488;-67
2022/07/31 05:26:38;;;;;;;10.00;7.57;;;;;;;21.43;70.46;101203.03;5067531;28;20466;-67
2022/07/31 05:29:06;;;;;;;11.02;7.78;;;;;;;21.95;67.93;101210.69;5063708;28;20055;-67
2022/07/31 05:31:33;;;;;;;12.05;8.52;;;;;;;22.21;67.21;101217.13;5066188;28;20466;-67
2022/07/31 05:33:59;;;;;;;9.43;7.22;;;;;;;22.21;66.39;101214.47;5067312;28;20040;-67
2022/07/31 05:36:26;;;;;;;8.50;7.60;;;;;;;22.56;65.19;101218.34;5065032;28;20134;-67
2022/07/31 05:38:53;;;;;;;9.20;7.53;;;;;;;22.75;64.41;101218.31;5066545;28;20048;-67
2022/07/31 05:41:19;;;;;;;11.82;7.22;;;;;;;23.20;63.07;101210.38;5064047;28;20098;-67
2022/07/31 05:43:46;;;;;;;10.00;7.13;;;;;;;23.38;63.23;101211.25;5065173;28;20041;-67
2022/07/31 05:46:15;;;;;;;11.45;6.78;;;;;;;23.52;62.29;101209.94;5067383;28;20044;-67
2022/07/31 05:48:42;;;;;;;6.93;6.10;;;;;;;23.52;62.82;101212.59;5066177;28;20051;-67
2022/07/31 05:51:09;;;;;;;11.35;7.00;;;;;;;23.82;61.61;101217.59;5064772;28;20044;-67
2022/07/31 05:53:36;;;;;;;13.02;6.63;;;;;;;23.99;60.58;101210.53;5054339;28;20041;-67
2022/07/31 05:56:03;;;;;;;8.85;6.45;;;;;;;24.02;60.72;101213.75;5066825;28;20040;-68
2022/07/31 05:58:29;;;;;;;8.98;6.82;;;;;;;23.94;60.91;101220.91;5065352;28;20098;-67
2022/07/31 06:00:56;;;;;;;9.60;6.07;;;;;;;24.16;60.11;101220.44;5065151;28;20049;-67
2022/07/31 06:03:26;;;;;;;11.38;6.30;;;;;;;24.61;58.91;101225.63;5076434;28;20056;-67
2022/07/31 06:05:53;;;;;;;7.60;5.60;;;;;;;25.19;57.63;101223.09;5069019;28;20064;-68
2022/07/31 06:08:19;;;;;;;6.28;5.00;;;;;;;25.34;55.86;101224.19;5065612;28;20250;-67
2022/07/31 06:10:45;;;;;;;6.13;5.38;;;;;;;25.40;55.13;101222.66;5065743;28;20107;-68
2022/07/31 06:13:13;;;;;;;6.50;4.78;;;;;;;25.71;53.44;101229.16;5078527;28;20473;-76
2022/07/31 06:15:40;;;;;;;10.93;4.72;;;;;;;25.79;52.31;101231.88;5085035;28;20706;-76
2022/07/31 06:18:07;;;;;;;8.27;4.43;;;;;;;26.13;52.87;101229.84;5070310;28;20048;-76
2022/07/31 06:20:35;;;;;;;6.47;3.83;;;;;;;26.10;51.15;101230.19;5064683;28;20048;-77
2022/07/31 06:23:01;;;;;;;7.60;4.20;;;;;;;26.04;49.88;101236.25;5069707;28;20055;-76
2022/07/31 06:25:27;;;;;;;5.93;4.20;;;;;;;25.94;49.76;101235.56;5074119;28;20048;-76
2022/07/31 06:27:54;;;;;;;5.85;3.97;;;;;;;25.60;49.55;101237.53;5065156;28;20052;-75
2022/07/31 06:30:20;;;;;;;6.40;4.20;;;;;;;25.72;51.00;101228.13;5065359;28;20173;-75
2022/07/31 06:32:47;;;;;;;6.00;3.42;;;;;;;25.53;50.25;101228.47;5066452;28;20052;-75
2022/07/31 06:35:13;;;;;;;11.38;3.90;;;;;;;25.54;49.90;101227.44;5065742;28;20393;-75
2022/07/31 06:37:41;;;;;;;6.65;3.53;;;;;;;25.52;51.19;101226.75;5066045;28;20105;-75
2022/07/31 06:40:08;;;;;;;8.25;3.90;;;;;;;25.29;50.75;101226.50;5065893;28;20045;-76
2022/07/31 06:42:34;;;;;;;5.20;3.55;;;;;;;25.37;48.73;101228.38;5064674;28;20102;-76
2022/07/31 06:45:01;;;;;;;4.53;4.05;;;;;;;25.40;49.32;101222.66;5065669;28;20040;-76
2022/07/31 06:47:27;;;;;;;4.38;3.42;;;;;;;25.76;50.52;101216.06;5065976;28;20044;-77
2022/07/31 06:49:54;;;;;;;6.32;3.72;;;;;;;26.26;49.49;101221.34;5063888;28;20094;-77
2022/07/31 06:52:21;;;;;;;6.85;2.95;;;;;;;26.62;46.78;101216.41;5060211;28;20044;-78
2022/07/31 06:54:48;;;;;;;6.40;3.00;;;;;;;26.93;46.54;101217.38;5076719;28;20052;-77
2022/07/31 06:57:15;;;;;;;8.60;3.10;;;;;;;27.53;45.60;101217.59;5063715;28;20048;-77
2022/07/31 06:59:41;;;;;;;7.65;3.60;;;;;;;27.79;44.51;101211.84;5064889;28;20533;-76
2022/07/31 07:02:08;;;;;;;5.50;3.80;;;;;;;27.97;44.76;101217.78;5065372;28;20044;-76
2022/07/31 07:04:34;;;;;;;6.70;3.53;;;;;;;28.67;43.89;101220.22;5064865;28;20044;-76
2022/07/31 07:07:01;;;;;;;7.32;3.70;;;;;;;28.77;44.31;101217.25;5065395;28;20099;-76
2022/07/31 07:09:27;;;;;;;5.72;3.70;;;;;;;28.53;40.96;101221.00;5065089;28;20044;-76
2022/07/31 07:11:55;;;;;;;6.60;3.80;;;;;;;28.76;39.50;101215.56;5064482;28;20110;-76
2022/07/31 07:14:21;;;;;;;8.80;3.95;;;;;;;28.04;41.53;101205.28;5065428;28;20098;-76
2022/07/31 07:16:48;;;;;;;4.40;3.47;;;;;;;28.65;41.26;101202.50;5065161;28;20052;-76
2022/07/31 07:19:14;;;;;;;7.00;3.65;;;;;;;28.99;42.04;101200.97;5062579;28;20052;-76
2022/07/31 07:21:40;;;;;;;9.80;3.30;;;;;;;29.18;41.38;101194.16;5065760;28;20477;-76
2022/07/31 07:24:07;;;;;;;4.85;3.15;;;;;;;29.37;41.83;101198.16;5065127;28;20547;-76
2022/07/31 07:26:34;;;;;;;4.72;2.80;;;;;;;29.54;40.35;101194.16;5063676;28;20102;-76
2022/07/31 07:29:01;;;;;;;4.75;2.92;;;;;;;29.35;40.56;101200.19;5064569;28;20081;-76
2022/07/31 07:31:28;;;;;;;6.53;3.25;;;;;;;29.46;40.65;101188.88;5066105;28;20041;-76
2022/07/31 07:33:55;;;;;;;5.25;3.00;;;;;;;29.99;40.40;101190.28;5062503;28;20135;-76
2022/07/31 07:36:22;;;;;;;5.78;2.72;;;;;;;29.54;40.79;101188.75;5060076;28;20045;-76
2022/07/31 07:38:48;;;;;;;5.40;3.05;;;;;;;29.71;40.92;101190.19;5062132;28;20048;-76
2022/07/31 07:41:14;;;;;;;10.25;3.42;;;;;;;29.35;39.24;101189.38;5063404;28;20453;-76
2022/07/31 07:43:41;;;;;;;6.93;3.78;;;;;;;29.78;41.59;101188.41;5064474;28;20129;-76
2022/07/31 07:46:09;;;;;;;4.95;3.00;;;;;;;30.27;39.39;101190.28;5063758;28;20044;-77
2022/07/31 07:48:35;;;;;;;8.98;3.15;;;;;;;29.99;41.52;101192.13;5065804;28;20431;-77
2022/07/31 07:51:01;;;;;;;6.07;3.20;;;;;;;30.02;37.45;101181.78;5063725;28;20080;-78
2022/07/31 07:53:28;;;;;;;5.13;2.90;;;;;;;30.17;37.18;101178.97;5063340;28;20049;-77
2022/07/31 07:55:54;;;;;;;4.07;3.10;;;;;;;30.26;40.23;101180.50;5065355;28;20503;-77
2022/07/31 07:58:21;;;;;;;6.57;3.28;;;;;;;30.61;39.62;101181.38;5062082;28;20068;-77
2022/07/31 08:00:47;;;;;;;8.10;3.55;;;;;;;30.73;38.62;101177.94;5061358;28;20044;-75
2022/07/31 08:03:15;;;;;;;5.32;3.17;;;;;;;30.87;36.04;101174.25;5064249;28;20040;-73
2022/07/31 08:05:42;;;;;;;5.85;2.92;;;;;;;31.03;39.47;101165.00;5062015;28;20040;-72
2022/07/31 08:08:08;;;;;;;7.82;3.53;;;;;;;31.03;37.81;101169.56;5062569;28;20045;-72
2022/07/31 08:10:35;;;;;;;7.03;3.40;;;;;;;31.06;36.70;101161.03;5064251;28;20071;-71
2022/07/31 08:13:01;;;;;;;4.82;2.78;;;;;;;31.12;36.72;101163.75;5063848;28;20519;-71
2022/07/31 08:15:28;;;;;;;4.80;2.40;;;;;;;31.72;34.00;101156.63;5073151;28;20040;-71
2022/07/31 08:17:55;;;;;;;4.13;2.58;;;;;;;31.86;34.35;101164.56;5066695;28;20055;-72
2022/07/31 08:20:22;;;;;;;4.78;2.83;;;;;;;31.41;37.38;101157.19;5063104;28;20048;-72
2022/07/31 08:22:49;;;;;;;5.15;2.90;;;;;;;31.67;37.42;101154.53;5062667;28;20036;-72
2022/07/31 08:25:15;;;;;;;5.20;2.67;;;;;;;31.91;36.02;101146.84;5072620;28;20098;-72
2022/07/31 08:27:41;;;;;;;8.63;2.78;;;;;;;31.71;37.41;101154.97;5082085;28;20039;-72
2022/07/31 08:30:09;;;;;;;4.35;3.05;;;;;;;31.45;38.43;101144.88;5064584;28;20126;-72
2022/07/31 08:32:37;;;;;;;6.88;2.80;;;;;;;31.20;34.57;101155.47;5066191;28;20522;-72
2022/07/31 08:35:03;;;;;;;6.07;2.63;;;;;;;31.17;36.64;101160.44;5067035;28;20044;-74
2022/07/31 08:37:31;;;;;;;3.85;2.40;;;;;;;31.32;35.41;101169.25;5062823;28;20045;-74
2022/07/31 08:39:58;;;;;;;6.80;2.50;;;;;;;31.51;37.99;101157.63;5062646;28;20462;-74
2022/07/31 08:42:25;;;;;;;12.35;2.53;;;;;;;31.30;34.85;101155.91;5061312;28;20048;-75
2022/07/31 08:44:52;;;;;;;5.53;2.88;;;;;;;31.73;33.35;101155.59;5063970;28;20070;-75
2022/07/31 08:47:19;;;;;;;8.45;3.22;;;;;;;31.61;32.69;101152.66;5079971;28;20094;-74
2022/07/31 08:49:48;;;;;;;5.90;2.47;;;;;;;31.23;35.86;101149.63;5065884;28;20044;-75
2022/07/31 08:52:19;;;;;;;6.22;2.35;;;;;;;32.04;34.89;101141.44;5077173;28;20056;-76
2022/07/31 08:54:49;;;;;;;7.22;2.28;;;;;;;32.30;33.20;101146.84;5067401;28;20392;-75
2022/07/31 08:57:16;;;;;;;4.00;2.40;;;;;;;32.70;32.54;101143.03;5076226;28;20049;-75
2022/07/31 08:59:42;;;;;;;4.10;2.00;;;;;;;32.96;32.27;101138.53;5066028;28;20090;-75
2022/07/31 09:02:09;;;;;;;3.75;1.98;;;;;;;32.48;30.79;101147.03;5065279;28;20048;-75
2022/07/31 09:04:36;;;;;;;5.78;2.33;;;;;;;32.66;34.03;101147.22;5066945;28;20044;-75
2022/07/31 09:07:03;;;;;;;3.92;2.10;;;;;;;31.94;30.14;101133.69;5067318;28;20488;-75
2022/07/31 09:09:30;;;;;;;7.68;2.20;;;;;;;32.20;29.63;101141.84;5064715;28;20520;-75
2022/07/31 09:11:58;;;;;;;2.90;1.70;;;;;;;32.31;30.33;101146.63;5064537;28;20044;-75
2022/07/31 09:14:27;;;;;;;2.58;2.00;;;;;;;32.27;32.35;101139.13;5066410;28;20109;-75
2022/07/31 09:16:54;;;;;;;6.03;2.17;;;;;;;32.75;30.18;101136.94;5065614;28;20123;-75
2022/07/31 09:19:21;;;;;;;2.95;1.85;;;;;;;32.54;29.78;101132.59;5066972;28;20466;-75
2022/07/31 09:21:48;;;;;;;4.60;1.70;;;;;;;33.04;30.15;101122.81;5066436;28;20052;-75
2022/07/31 09:24:26;;;;;;;5.00;2.28;;;;;;;32.71;29.41;101125.66;5065249;28;20076;-75
2022/07/31 09:27:04;;;;;;;4.25;1.90;;;;;;;33.15;28.74;101124.03;5065979;28;20044;-75
2022/07/31 09:29:34;;;;;;;3.25;1.90;;;;;;;33.23;31.53;101121.91;5063593;28;20040;-75
2022/07/31 09:32:07;;;;;;;4.32;1.75;;;;;;;33.19;27.60;101114.38;5065560;28;20048;-75
2022/07/31 09:34:34;;;;;;;2.60;1.40;;;;;;;33.03;27.73;101115.72;5063178;28;20049;-75
2022/07/31 09:37:08;;;;;;;4.22;1.60;;;;;;;32.73;29.64;101125.47;5065713;28;20519;-76
2022/07/31 09:39:35;;;;;;;4.65;1.98;;;;;;;33.33;28.37;101105.13;5064862;28;20059;-75
2022/07/31 09:42:03;;;;;;;3.78;1.90;;;;;;;33.65;27.46;101111.41;5060086;28;20474;-75
2022/07/31 09:44:35;;;;;;;4.25;2.08;;;;;;;33.32;28.37;101105.34;5066628;28;20045;-75
2022/07/31 09:47:02;;;;;;;5.38;2.08;;;;;;;32.51;29.42;101116.75;5066412;28;20048;-75
2022/07/31 09:49:31;;;;;;;5.85;2.00;;;;;;;32.28;29.45;101116.38;5064077;28;20040;-75
2022/07/31 09:51:58;;;;;;;3.03;1.90;;;;;;;31.98;29.34;101115.97;5064343;28;20044;-75
2022/07/31 09:54:26;;;;;;;7.22;1.80;;;;;;;32.07;30.62;101116.63;5065579;28;20131;-75
2022/07/31 09:56:53;;;;;;;5.45;2.00;;;;;;;32.52;30.92;101112.16;5064891;28;20056;-75
2022/07/31 09:59:20;;;;;;;4.15;2.03;;;;;;;32.59;28.73;101111.13;5064218;28;20041;-75
2022/07/31 10:01:48;;;;;;;5.53;1.55;;;;;;;32.58;26.56;101103.97;5066764;28;20040;-75
2022/07/31 10:04:16;;;;;;;2.95;1.50;;;;;;;32.66;26.51;101109.22;5063824;28;20088;-75
2022/07/31 10:06:46;;;;;;;2.33;1.60;;;;;;;32.94;27.63;101100.72;5064288;28;20054;-75
2022/07/31 10:09:14;;;;;;;6.00;1.80;;;;;;;33.42;29.45;101095.63;5066006;28;20052;-75
2022/07/31 10:11:41;;;;;;;4.82;1.58;;;;;;;33.77;29.22;101100.63;5065495;28;20094;-75
2022/07/31 10:14:25;;;;;;;4.32;1.90;;;;;;;34.39;27.24;101099.63;5064459;28;20048;-75
2022/07/31 10:16:58;;;;;;;7.68;1.75;;;;;;;34.85;27.05;101090.94;5064203;28;20052;-75
2022/07/31 10:19:27;;;;;;;3.88;1.52;;;;;;;34.81;26.81;101085.13;5064182;28;20070;-75
2022/07/31 10:21:56;;;;;;;2.60;1.42;;;;;;;34.64;26.11;101076.72;5065691;28;20048;-75
2022/07/31 10:24:26;;;;;;;4.13;1.50;;;;;;;34.73;25.37;101065.53;5066133;28;20044;-76
2022/07/31 10:26:57;;;;;;;2.97;1.67;;;;;;;34.94;25.56;101070.47;5064347;28;20048;-75
2022/07/31 10:29:23;;;;;;;3.70;1.77;;;;;;;35.13;24.78;101069.38;5063855;28;20040;-76
2022/07/31 10:31:50;;;;;;;3.53;1.52;;;;;;;35.22;24.64;101075.34;5066370;28;20045;-75
2022/07/31 10:34:19;;;;;;;3.40;1.48;;;;;;;34.89;25.80;101068.44;5064695;28;20040;-75
2022/07/31 10:36:49;;;;;;;2.95;1.52;;;;;;;34.39;23.14;101066.97;5064887;28;20514;-76
2022/07/31 10:39:23;;;;;;;4.28;1.40;;;;;;;34.60;25.35;101069.22;5061736;28;20044;-75
2022/07/31 10:41:57;;;;;;;2.42;1.38;;;;;;;34.02;24.04;101064.19;5065821;28;20098;-75
2022/07/31 10:44:33;;;;;;;6.50;1.38;;;;;;;33.70;24.94;101066.16;5064893;28;20044;-75
2022/07/31 10:47:00;;;;;;;3.70;1.60;;;;;;;33.50;26.89;101060.03;5065228;28;20044;-75
2022/07/31 10:49:42;;;;;;;4.55;1.55;;;;;;;34.13;25.10;101058.03;5063684;28;20505;-75
2022/07/31 10:52:08;;;;;;;4.78;1.92;;;;;;;33.92;26.12;101052.16;5065241;28;20400;-75
2022/07/31 10:54:39;;;;;;;6.28;1.80;;;;;;;33.97;26.85;101052.31;5063383;28;20101;-75
2022/07/31 10:57:06;;;;;;;1.83;1.23;;;;;;;34.17;25.24;101050.25;5063404;28;20173;-75
2022/07/31 10:59:32;;;;;;;4.32;1.30;;;;;;;34.10;24.70;101052.19;5064895;28;20458;-74
2022/07/31 11:01:59;;;;;;;4.38;1.45;;;;;;;33.64;24.38;101045.28;5071025;28;20049;-74
2022/07/31 11:04:27;;;;;;;4.15;1.40;;;;;;;32.79;24.83;101043.97;5067133;28;20043;-74
2022/07/31 11:06:54;;;;;;;2.95;1.20;;;;;;;33.10;24.53;101039.59;5053894;28;20055;-74
2022/07/31 11:09:22;;;;;;;3.83;1.42;;;;;;;32.75;24.62;101034.56;5050342;28;20189;-75
2022/07/31 11:11:48;;;;;;;1.77;1.00;;;;;;;32.38;23.46;101032.63;5043628;28;20069;-69
2022/07/31 11:14:15;;;;;;;2.03;1.00;;;;;;;32.16;22.40;101039.38;5046750;28;20052;-70
2022/07/31 11:16:49;;;;;;;2.25;1.10;;;;;;;32.40;23.33;101041.41;5054988;28;20561;-70
2022/07/31 11:19:16;;;;;;;2.90;1.13;;;;;;;32.13;23.91;101034.38;5063406;28;20506;-69
2022/07/31 11:21:42;;;;;;;1.98;0.90;;;;;;;32.15;24.38;101029.59;5064218;28;20044;-69